sensor_id;sensor_type;location;lat;lon;timestamp;pressure;altitude;pressure_sealevel;temperature;humidity
21574;BME280;10948;48.706;9.258;2023-08-06T00:00:38;97017.53;;;17.00;100.00
21574;BME280;10948;48.706;9.258;2023-08-06T00:03:04;97000.44;;;16.97;100.00
21574;BME280;10948;48.706;9.258;2023-08-06T00:05:29;97000.44;;;16.97;100.00
21574;BME280;10948;48.706;9.258;2023-08-06T00:07:54;97003.97;;;16.88;100.00
21574;BME280;10948;48.706;9.258;2023-08-06T00:10:19;97008.00;;;16.82;100.00
21574;BME280;10948;48.706;9.258;2023-08-06T00:12:45;96998.41;;;16.91;100.00
21574;BME280;10948;48.706;9.258;2023-08-06T00:15:10;96997.63;;;16.81;100.00
21574;BME280;10948;48.706;9.258;2023-08-06T00:17:36;96994.78;;;16.74;100.00
21574;BME280;10948;48.706;9.258;2023-08-06T00:20:02;96992.59;;;16.70;100.00
21574;BME280;10948;48.706;9.258;2023-08-06T00:22:37;96998.25;;;16.48;100.00
21574;BME280;10948;48.706;9.258;2023-08-06T00:25:03;96994.91;;;16.55;100.00
21574;BME280;10948;48.706;9.258;2023-08-06T00:27:28;96998.03;;;16.32;100.00
21574;BME280;10948;48.706;9.258;2023-08-06T00:29:53;96992.50;;;16.35;100.00
21574;BME280;10948;48.706;9.258;2023-08-06T00:32:19;96989.50;;;16.30;100.00
21574;BME280;10948;48.706;9.258;2023-08-06T00:34:44;96989.44;;;16.49;100.00
21574;BME280;10948;48.706;9.258;2023-08-06T00:37:09;96992.78;;;16.32;100.00
21574;BME280;10948;48.706;9.258;2023-08-06T00:39:34;96992.06;;;16.12;100.00
21574;BME280;10948;48.706;9.258;2023-08-06T00:42:00;96993.75;;;16.31;100.00
21574;BME280;10948;48.706;9.258;2023-08-06T00:44:25;96990.94;;;16.15;100.00
21574;BME280;10948;48.706;9.258;2023-08-06T00:46:50;96988.91;;;16.09;100.00
21574;BME280;10948;48.706;9.258;2023-08-06T00:49:15;96991.53;;;16.09;100.00
21574;BME280;10948;48.706;9.258;2023-08-06T00:51:41;96989.22;;;16.23;100.00
21574;BME280;10948;48.706;9.258;2023-08-06T00:54:07;96986.81;;;16.12;100.00
21574;BME280;10948;48.706;9.258;2023-08-06T00:56:33;96981.53;;;16.22;100.00
21574;BME280;10948;48.706;9.258;2023-08-06T00:59:00;96974.06;;;16.17;100.00
21574;BME280;10948;48.706;9.258;2023-08-06T01:01:26;96984.13;;;15.95;100.00
21574;BME280;10948;48.706;9.258;2023-08-06T01:03:51;96984.06;;;16.04;100.00
21574;BME280;10948;48.706;9.258;2023-08-06T01:06:17;96985.19;;;16.02;100.00
21574;BME280;10948;48.706;9.258;2023-08-06T01:08:49;96984.50;;;16.00;100.00
21574;BME280;10948;48.706;9.258;2023-08-06T01:13:42;96977.00;;;15.78;100.00
21574;BME280;10948;48.706;9.258;2023-08-06T01:16:11;96980.56;;;15.86;100.00
21574;BME280;10948;48.706;9.258;2023-08-06T01:18:36;96971.53;;;15.62;100.00
21574;BME280;10948;48.706;9.258;2023-08-06T01:21:04;96972.19;;;15.64;100.00
21574;BME280;10948;48.706;9.258;2023-08-06T01:23:29;96977.63;;;15.43;100.00
21574;BME280;10948;48.706;9.258;2023-08-06T01:28:24;96981.06;;;15.53;100.00
21574;BME280;10948;48.706;9.258;2023-08-06T01:30:52;96981.19;;;15.52;100.00
21574;BME280;10948;48.706;9.258;2023-08-06T01:33:19;96978.66;;;15.69;100.00
21574;BME280;10948;48.706;9.258;2023-08-06T01:35:46;96960.72;;;15.65;100.00
21574;BME280;10948;48.706;9.258;2023-08-06T01:38:13;96971.38;;;15.54;100.00
21574;BME280;10948;48.706;9.258;2023-08-06T01:40:38;96967.84;;;15.36;100.00
21574;BME280;10948;48.706;9.258;2023-08-06T01:43:04;96957.34;;;15.17;100.00
21574;BME280;10948;48.706;9.258;2023-08-06T01:45:29;96958.59;;;15.41;100.00
21574;BME280;10948;48.706;9.258;2023-08-06T01:47:54;96963.28;;;15.38;100.00
21574;BME280;10948;48.706;9.258;2023-08-06T01:50:19;96961.84;;;15.62;100.00
21574;BME280;10948;48.706;9.258;2023-08-06T01:52:45;96953.19;;;15.52;100.00
21574;BME280;10948;48.706;9.258;2023-08-06T01:55:10;96952.50;;;15.41;100.00
21574;BME280;10948;48.706;9.258;2023-08-06T01:57:35;96952.25;;;15.15;100.00
21574;BME280;10948;48.706;9.258;2023-08-06T02:00:00;96945.59;;;15.40;100.00
21574;BME280;10948;48.706;9.258;2023-08-06T02:02:25;96943.69;;;15.23;100.00
21574;BME280;10948;48.706;9.258;2023-08-06T02:04:51;96943.41;;;15.35;100.00
21574;BME280;10948;48.706;9.258;2023-08-06T02:07:16;96933.00;;;15.53;100.00
21574;BME280;10948;48.706;9.258;2023-08-06T02:09:41;96939.53;;;15.30;100.00
21574;BME280;10948;48.706;9.258;2023-08-06T02:12:06;96931.28;;;15.34;100.00
21574;BME280;10948;48.706;9.258;2023-08-06T02:14:32;96935.41;;;15.37;100.00
21574;BME280;10948;48.706;9.258;2023-08-06T02:16:57;96924.63;;;15.40;100.00
21574;BME280;10948;48.706;9.258;2023-08-06T02:19:22;96930.72;;;15.40;100.00
21574;BME280;10948;48.706;9.258;2023-08-06T02:21:48;96911.63;;;15.48;100.00
21574;BME280;10948;48.706;9.258;2023-08-06T02:24:13;96915.53;;;15.44;100.00
21574;BME280;10948;48.706;9.258;2023-08-06T02:26:38;96908.34;;;15.36;100.00
21574;BME280;10948;48.706;9.258;2023-08-06T02:29:03;96907.00;;;15.23;100.00
21574;BME280;10948;48.706;9.258;2023-08-06T02:31:28;96895.69;;;15.13;100.00
21574;BME280;10948;48.706;9.258;2023-08-06T02:33:54;96905.63;;;15.00;100.00
21574;BME280;10948;48.706;9.258;2023-08-06T02:36:19;96907.03;;;15.04;100.00
21574;BME280;10948;48.706;9.258;2023-08-06T02:38:44;96902.63;;;14.85;100.00
21574;BME280;10948;48.706;9.258;2023-08-06T02:41:09;96904.00;;;14.99;100.00
21574;BME280;10948;48.706;9.258;2023-08-06T02:43:35;96885.41;;;14.64;100.00
21574;BME280;10948;48.706;9.258;2023-08-06T02:46:00;96887.47;;;14.70;100.00
21574;BME280;10948;48.706;9.258;2023-08-06T02:48:26;96888.28;;;14.61;100.00
21574;BME280;10948;48.706;9.258;2023-08-06T02:50:51;96892.16;;;14.66;100.00
21574;BME280;10948;48.706;9.258;2023-08-06T02:53:16;96893.38;;;14.53;100.00
21574;BME280;10948;48.706;9.258;2023-08-06T02:55:48;96879.50;;;14.62;100.00
21574;BME280;10948;48.706;9.258;2023-08-06T02:58:14;96880.31;;;14.62;100.00
21574;BME280;10948;48.706;9.258;2023-08-06T03:00:39;96883.59;;;14.55;100.00
21574;BME280;10948;48.706;9.258;2023-08-06T03:03:04;96882.50;;;14.67;100.00
21574;BME280;10948;48.706;9.258;2023-08-06T03:05:29;96880.44;;;14.61;100.00
21574;BME280;10948;48.706;9.258;2023-08-06T03:07:55;96874.25;;;14.62;100.00
21574;BME280;10948;48.706;9.258;2023-08-06T03:10:20;96860.75;;;14.38;100.00
21574;BME280;10948;48.706;9.258;2023-08-06T03:12:45;96867.09;;;14.54;100.00
21574;BME280;10948;48.706;9.258;2023-08-06T03:15:11;96869.28;;;14.59;100.00
21574;BME280;10948;48.706;9.258;2023-08-06T03:17:36;96865.81;;;14.68;100.00
21574;BME280;10948;48.706;9.258;2023-08-06T03:20:01;96855.75;;;14.73;100.00
21574;BME280;10948;48.706;9.258;2023-08-06T03:22:26;96857.16;;;14.58;100.00
21574;BME280;10948;48.706;9.258;2023-08-06T03:24:52;96846.78;;;14.75;100.00
21574;BME280;10948;48.706;9.258;2023-08-06T03:27:17;96851.91;;;14.77;100.00
21574;BME280;10948;48.706;9.258;2023-08-06T03:29:42;96851.34;;;14.73;100.00
21574;BME280;10948;48.706;9.258;2023-08-06T03:32:07;96844.72;;;14.88;100.00
21574;BME280;10948;48.706;9.258;2023-08-06T03:34:32;96848.31;;;14.78;100.00
21574;BME280;10948;48.706;9.258;2023-08-06T03:36:58;96847.47;;;14.68;100.00
21574;BME280;10948;48.706;9.258;2023-08-06T03:39:23;96847.09;;;14.82;100.00
21574;BME280;10948;48.706;9.258;2023-08-06T03:41:48;96850.94;;;14.68;100.00
21574;BME280;10948;48.706;9.258;2023-08-06T03:44:13;96851.91;;;14.77;100.00
21574;BME280;10948;48.706;9.258;2023-08-06T03:46:38;96846.25;;;14.72;100.00
21574;BME280;10948;48.706;9.258;2023-08-06T03:49:04;96854.53;;;14.77;100.00
21574;BME280;10948;48.706;9.258;2023-08-06T03:51:29;96855.06;;;14.90;100.00
21574;BME280;10948;48.706;9.258;2023-08-06T03:53:54;96847.94;;;15.19;100.00
21574;BME280;10948;48.706;9.258;2023-08-06T03:56:19;96841.50;;;15.04;100.00
21574;BME280;10948;48.706;9.258;2023-08-06T03:58:44;96839.13;;;15.10;100.00
21574;BME280;10948;48.706;9.258;2023-08-06T04:01:10;96839.69;;;15.04;100.00
21574;BME280;10948;48.706;9.258;2023-08-06T04:03:35;96837.78;;;15.06;100.00
21574;BME280;10948;48.706;9.258;2023-08-06T04:06:02;96841.66;;;14.93;100.00
21574;BME280;10948;48.706;9.258;2023-08-06T04:08:27;96827.53;;;15.13;100.00
21574;BME280;10948;48.706;9.258;2023-08-06T04:10:52;96839.66;;;15.23;100.00
21574;BME280;10948;48.706;9.258;2023-08-06T04:13:18;96840.19;;;15.27;100.00
21574;BME280;10948;48.706;9.258;2023-08-06T04:15:43;96836.66;;;15.18;100.00
21574;BME280;10948;48.706;9.258;2023-08-06T04:18:08;96839.66;;;15.33;100.00
21574;BME280;10948;48.706;9.258;2023-08-06T04:20:33;96840.75;;;15.21;100.00
21574;BME280;10948;48.706;9.258;2023-08-06T04:22:59;96837.44;;;15.28;100.00
21574;BME280;10948;48.706;9.258;2023-08-06T04:25:24;96843.50;;;15.29;100.00
21574;BME280;10948;48.706;9.258;2023-08-06T04:27:49;96840.06;;;15.28;100.00
21574;BME280;10948;48.706;9.258;2023-08-06T04:30:15;96847.25;;;15.36;100.00
21574;BME280;10948;48.706;9.258;2023-08-06T04:32:40;96842.28;;;15.33;100.00
21574;BME280;10948;48.706;9.258;2023-08-06T04:35:05;96851.22;;;15.40;100.00
21574;BME280;10948;48.706;9.258;2023-08-06T04:37:31;96852.50;;;15.36;100.00
21574;BME280;10948;48.706;9.258;2023-08-06T04:39:56;96856.84;;;15.45;100.00
21574;BME280;10948;48.706;9.258;2023-08-06T04:42:21;96863.84;;;15.54;100.00
21574;BME280;10948;48.706;9.258;2023-08-06T04:44:47;96859.91;;;15.40;100.00
21574;BME280;10948;48.706;9.258;2023-08-06T04:47:12;96870.66;;;15.47;100.00
21574;BME280;10948;48.706;9.258;2023-08-06T04:49:37;96868.91;;;15.38;100.00
21574;BME280;10948;48.706;9.258;2023-08-06T04:52:02;96858.50;;;15.46;100.00
21574;BME280;10948;48.706;9.258;2023-08-06T04:54:28;96869.66;;;15.48;100.00
21574;BME280;10948;48.706;9.258;2023-08-06T04:56:53;96871.34;;;15.49;100.00
21574;BME280;10948;48.706;9.258;2023-08-06T04:59:18;96867.84;;;15.58;100.00
21574;BME280;10948;48.706;9.258;2023-08-06T05:01:43;96867.19;;;15.56;100.00
21574;BME280;10948;48.706;9.258;2023-08-06T05:04:08;96870.22;;;15.51;100.00
21574;BME280;10948;48.706;9.258;2023-08-06T05:06:34;96864.03;;;15.52;100.00
21574;BME280;10948;48.706;9.258;2023-08-06T05:08:59;96868.97;;;15.55;100.00
21574;BME280;10948;48.706;9.258;2023-08-06T05:11:24;96865.25;;;15.48;100.00
21574;BME280;10948;48.706;9.258;2023-08-06T05:13:49;96862.63;;;15.48;100.00
21574;BME280;10948;48.706;9.258;2023-08-06T05:16:15;96860.97;;;15.57;100.00
21574;BME280;10948;48.706;9.258;2023-08-06T05:18:40;96857.19;;;15.69;100.00
21574;BME280;10948;48.706;9.258;2023-08-06T05:21:06;96864.25;;;15.59;100.00
21574;BME280;10948;48.706;9.258;2023-08-06T05:23:31;96862.69;;;15.66;100.00
21574;BME280;10948;48.706;9.258;2023-08-06T05:25:57;96864.16;;;15.51;100.00
21574;BME280;10948;48.706;9.258;2023-08-06T05:28:22;96864.56;;;15.56;100.00
21574;BME280;10948;48.706;9.258;2023-08-06T05:30:47;96868.75;;;15.76;100.00
21574;BME280;10948;48.706;9.258;2023-08-06T05:33:12;96870.38;;;15.77;100.00
21574;BME280;10948;48.706;9.258;2023-08-06T05:35:37;96865.00;;;15.78;100.00
21574;BME280;10948;48.706;9.258;2023-08-06T05:38:03;96866.75;;;16.32;100.00
21574;BME280;10948;48.706;9.258;2023-08-06T05:40:28;96862.47;;;16.83;100.00
21574;BME280;10948;48.706;9.258;2023-08-06T05:42:53;96859.59;;;17.70;100.00
21574;BME280;10948;48.706;9.258;2023-08-06T05:45:19;96864.16;;;18.35;100.00
21574;BME280;10948;48.706;9.258;2023-08-06T05:47:44;96862.06;;;18.13;100.00
21574;BME280;10948;48.706;9.258;2023-08-06T05:50:09;96861.25;;;17.71;100.00
21574;BME280;10948;48.706;9.258;2023-08-06T05:52:35;96858.75;;;17.36;100.00
21574;BME280;10948;48.706;9.258;2023-08-06T05:55:00;96865.28;;;17.32;100.00
21574;BME280;10948;48.706;9.258;2023-08-06T05:57:25;96876.53;;;17.17;100.00
21574;BME280;10948;48.706;9.258;2023-08-06T05:59:50;96877.25;;;17.02;100.00
21574;BME280;10948;48.706;9.258;2023-08-06T06:02:15;96882.75;;;16.91;100.00
21574;BME280;10948;48.706;9.258;2023-08-06T06:04:43;96884.56;;;16.73;100.00
21574;BME280;10948;48.706;9.258;2023-08-06T06:07:08;96888.75;;;16.66;100.00
21574;BME280;10948;48.706;9.258;2023-08-06T06:09:33;96892.16;;;16.76;100.00
21574;BME280;10948;48.706;9.258;2023-08-06T06:11:59;96895.25;;;16.71;100.00
21574;BME280;10948;48.706;9.258;2023-08-06T06:14:24;96895.97;;;16.64;100.00
21574;BME280;10948;48.706;9.258;2023-08-06T06:16:49;96892.22;;;16.84;100.00
21574;BME280;10948;48.706;9.258;2023-08-06T06:19:14;96896.56;;;16.92;100.00
21574;BME280;10948;48.706;9.258;2023-08-06T06:21:39;96890.03;;;16.97;100.00
21574;BME280;10948;48.706;9.258;2023-08-06T06:24:05;96898.59;;;16.81;100.00
21574;BME280;10948;48.706;9.258;2023-08-06T06:26:31;96903.25;;;16.70;100.00
21574;BME280;10948;48.706;9.258;2023-08-06T06:28:56;96908.28;;;16.46;100.00
21574;BME280;10948;48.706;9.258;2023-08-06T06:31:22;96907.38;;;16.28;100.00
21574;BME280;10948;48.706;9.258;2023-08-06T06:33:47;96913.00;;;16.42;100.00
21574;BME280;10948;48.706;9.258;2023-08-06T06:36:12;96911.09;;;16.35;100.00
21574;BME280;10948;48.706;9.258;2023-08-06T06:38:38;96911.59;;;16.65;100.00
21574;BME280;10948;48.706;9.258;2023-08-06T06:41:03;96907.41;;;16.72;100.00
21574;BME280;10948;48.706;9.258;2023-08-06T06:43:28;96914.66;;;16.96;100.00
21574;BME280;10948;48.706;9.258;2023-08-06T06:45:57;96914.78;;;17.11;100.00
21574;BME280;10948;48.706;9.258;2023-08-06T06:48:23;96916.91;;;16.91;100.00
21574;BME280;10948;48.706;9.258;2023-08-06T06:50:48;96926.97;;;16.78;100.00
21574;BME280;10948;48.706;9.258;2023-08-06T06:53:14;96926.16;;;16.60;100.00
21574;BME280;10948;48.706;9.258;2023-08-06T06:55:39;96925.47;;;16.92;100.00
21574;BME280;10948;48.706;9.258;2023-08-06T06:58:04;96918.06;;;16.53;100.00
21574;BME280;10948;48.706;9.258;2023-08-06T07:00:30;96926.00;;;16.61;100.00
21574;BME280;10948;48.706;9.258;2023-08-06T07:02:55;96924.94;;;16.54;100.00
21574;BME280;10948;48.706;9.258;2023-08-06T07:05:20;96928.03;;;16.50;100.00
21574;BME280;10948;48.706;9.258;2023-08-06T07:07:45;96921.41;;;16.46;100.00
21574;BME280;10948;48.706;9.258;2023-08-06T07:10:10;96927.81;;;16.34;100.00
21574;BME280;10948;48.706;9.258;2023-08-06T07:12:36;96922.00;;;16.40;100.00
21574;BME280;10948;48.706;9.258;2023-08-06T07:15:03;96925.84;;;16.18;100.00
21574;BME280;10948;48.706;9.258;2023-08-06T07:17:28;96926.16;;;16.60;100.00
21574;BME280;10948;48.706;9.258;2023-08-06T07:19:53;96929.59;;;16.95;100.00
21574;BME280;10948;48.706;9.258;2023-08-06T07:22:19;96933.34;;;17.10;100.00
21574;BME280;10948;48.706;9.258;2023-08-06T07:24:44;96926.06;;;16.52;100.00
21574;BME280;10948;48.706;9.258;2023-08-06T07:27:09;96934.78;;;16.70;100.00
21574;BME280;10948;48.706;9.258;2023-08-06T07:29:34;96933.81;;;16.71;100.00
21574;BME280;10948;48.706;9.258;2023-08-06T07:32:00;96934.72;;;16.62;100.00
21574;BME280;10948;48.706;9.258;2023-08-06T07:34:25;96938.03;;;16.64;100.00
21574;BME280;10948;48.706;9.258;2023-08-06T07:36:50;96928.06;;;17.10;100.00
21574;BME280;10948;48.706;9.258;2023-08-06T07:39:15;96927.88;;;17.03;100.00
21574;BME280;10948;48.706;9.258;2023-08-06T07:41:41;96929.16;;;16.47;100.00
21574;BME280;10948;48.706;9.258;2023-08-06T07:44:07;96932.75;;;16.64;100.00
21574;BME280;10948;48.706;9.258;2023-08-06T07:46:32;96926.00;;;16.61;100.00
21574;BME280;10948;48.706;9.258;2023-08-06T07:48:57;96929.75;;;16.93;100.00
21574;BME280;10948;48.706;9.258;2023-08-06T07:51:22;96932.63;;;17.25;100.00
21574;BME280;10948;48.706;9.258;2023-08-06T07:53:47;96926.88;;;17.98;100.00
21574;BME280;10948;48.706;9.258;2023-08-06T07:56:13;96929.13;;;17.93;100.00
21574;BME280;10948;48.706;9.258;2023-08-06T07:58:38;96929.78;;;17.36;100.00
21574;BME280;10948;48.706;9.258;2023-08-06T08:01:05;96926.72;;;18.00;100.00
21574;BME280;10948;48.706;9.258;2023-08-06T08:03:31;96928.56;;;17.74;100.00
21574;BME280;10948;48.706;9.258;2023-08-06T08:05:56;96929.75;;;18.70;100.00
21574;BME280;10948;48.706;9.258;2023-08-06T08:08:22;96941.16;;;18.29;100.00
21574;BME280;10948;48.706;9.258;2023-08-06T08:10:48;96937.50;;;18.22;100.00
21574;BME280;10948;48.706;9.258;2023-08-06T08:13:13;96932.78;;;19.07;98.50
21574;BME280;10948;48.706;9.258;2023-08-06T08:15:38;96940.66;;;18.99;96.33
21574;BME280;10948;48.706;9.258;2023-08-06T08:18:03;96930.13;;;18.99;99.67
21574;BME280;10948;48.706;9.258;2023-08-06T08:20:29;96929.78;;;18.86;98.45
21574;BME280;10948;48.706;9.258;2023-08-06T08:22:57;96930.09;;;18.75;97.65
21574;BME280;10948;48.706;9.258;2023-08-06T08:25:22;96924.75;;;18.35;99.68
21574;BME280;10948;48.706;9.258;2023-08-06T08:27:47;96915.38;;;18.49;100.00
21574;BME280;10948;48.706;9.258;2023-08-06T08:30:13;96927.41;;;18.51;100.00
21574;BME280;10948;48.706;9.258;2023-08-06T08:32:38;96921.66;;;17.73;100.00
21574;BME280;10948;48.706;9.258;2023-08-06T08:35:03;96927.94;;;17.80;100.00
21574;BME280;10948;48.706;9.258;2023-08-06T08:37:28;96927.31;;;17.86;100.00
21574;BME280;10948;48.706;9.258;2023-08-06T08:39:54;96927.50;;;17.92;100.00
21574;BME280;10948;48.706;9.258;2023-08-06T08:42:19;96928.44;;;17.83;100.00
21574;BME280;10948;48.706;9.258;2023-08-06T08:44:44;96939.19;;;17.64;100.00
21574;BME280;10948;48.706;9.258;2023-08-06T08:47:10;96940.13;;;17.55;100.00
21574;BME280;10948;48.706;9.258;2023-08-06T08:49:36;96938.59;;;17.27;100.00
21574;BME280;10948;48.706;9.258;2023-08-06T08:52:01;96941.59;;;17.15;100.00
21574;BME280;10948;48.706;9.258;2023-08-06T08:54:27;96938.16;;;17.57;100.00
21574;BME280;10948;48.706;9.258;2023-08-06T08:56:53;96937.69;;;18.78;100.00
21574;BME280;10948;48.706;9.258;2023-08-06T08:59:20;96937.38;;;18.81;99.00
21574;BME280;10948;48.706;9.258;2023-08-06T09:01:45;96939.25;;;18.06;100.00
21574;BME280;10948;48.706;9.258;2023-08-06T09:04:11;96939.59;;;18.44;100.00
21574;BME280;10948;48.706;9.258;2023-08-06T09:06:37;96951.19;;;18.26;100.00
21574;BME280;10948;48.706;9.258;2023-08-06T09:09:08;96944.09;;;18.26;100.00
21574;BME280;10948;48.706;9.258;2023-08-06T09:11:35;96941.88;;;18.39;100.00
21574;BME280;10948;48.706;9.258;2023-08-06T09:14:06;96948.25;;;19.10;100.00
21574;BME280;10948;48.706;9.258;2023-08-06T09:16:32;96946.47;;;19.35;98.65
21574;BME280;10948;48.706;9.258;2023-08-06T09:19:01;96945.94;;;18.83;97.89
21574;BME280;10948;48.706;9.258;2023-08-06T09:21:31;96941.31;;;18.69;99.82
21574;BME280;10948;48.706;9.258;2023-08-06T09:23:58;96941.16;;;18.29;99.36
21574;BME280;10948;48.706;9.258;2023-08-06T09:26:24;96947.28;;;18.87;99.97
21574;BME280;10948;48.706;9.258;2023-08-06T09:28:49;96949.09;;;19.11;100.00
21574;BME280;10948;48.706;9.258;2023-08-06T09:31:17;96944.03;;;19.33;92.74
21574;BME280;10948;48.706;9.258;2023-08-06T09:33:42;96948.41;;;19.01;96.59
21574;BME280;10948;48.706;9.258;2023-08-06T09:36:12;96951.38;;;18.90;95.40
21574;BME280;10948;48.706;9.258;2023-08-06T09:38:38;96953.69;;;19.01;95.19
21574;BME280;10948;48.706;9.258;2023-08-06T09:41:05;96954.66;;;18.76;95.24
21574;BME280;10948;48.706;9.258;2023-08-06T09:43:30;96953.19;;;18.89;96.93
21574;BME280;10948;48.706;9.258;2023-08-06T09:45:55;96950.84;;;18.29;100.00
21574;BME280;10948;48.706;9.258;2023-08-06T09:48:21;96952.66;;;18.70;100.00
21574;BME280;10948;48.706;9.258;2023-08-06T09:50:49;96956.72;;;18.40;100.00
21574;BME280;10948;48.706;9.258;2023-08-06T09:53:17;96950.66;;;18.56;100.00
21574;BME280;10948;48.706;9.258;2023-08-06T09:55:44;96943.22;;;18.43;100.00
21574;BME280;10948;48.706;9.258;2023-08-06T09:58:10;96956.03;;;18.38;100.00
21574;BME280;10948;48.706;9.258;2023-08-06T10:00:37;96957.41;;;18.66;100.00
21574;BME280;10948;48.706;9.258;2023-08-06T10:03:02;96951.84;;;18.61;100.00
21574;BME280;10948;48.706;9.258;2023-08-06T10:05:27;96954.63;;;18.60;100.00
21574;BME280;10948;48.706;9.258;2023-08-06T10:07:53;96961.03;;;18.49;100.00
21574;BME280;10948;48.706;9.258;2023-08-06T10:10:20;96962.22;;;18.21;100.00
21574;BME280;10948;48.706;9.258;2023-08-06T10:12:49;96960.94;;;18.00;100.00
21574;BME280;10948;48.706;9.258;2023-08-06T10:15:16;96961.28;;;17.71;100.00
21574;BME280;10948;48.706;9.258;2023-08-06T10:17:42;96975.75;;;17.67;100.00
21574;BME280;10948;48.706;9.258;2023-08-06T10:20:08;96975.19;;;17.38;100.00
21574;BME280;10948;48.706;9.258;2023-08-06T10:22:34;96976.00;;;17.56;100.00
21574;BME280;10948;48.706;9.258;2023-08-06T10:25:00;96971.38;;;17.58;100.00
21574;BME280;10948;48.706;9.258;2023-08-06T10:27:30;96973.63;;;18.04;100.00
21574;BME280;10948;48.706;9.258;2023-08-06T10:29:56;96969.78;;;18.58;100.00
21574;BME280;10948;48.706;9.258;2023-08-06T10:32:21;96981.78;;;18.19;100.00
21574;BME280;10948;48.706;9.258;2023-08-06T10:35:09;96982.13;;;18.57;100.00
21574;BME280;10948;48.706;9.258;2023-08-06T10:37:52;96975.78;;;19.08;100.00
21574;BME280;10948;48.706;9.258;2023-08-06T10:40:20;96981.16;;;18.66;100.00
21574;BME280;10948;48.706;9.258;2023-08-06T10:42:45;96992.66;;;18.57;100.00
21574;BME280;10948;48.706;9.258;2023-08-06T10:45:14;96988.81;;;18.10;100.00
21574;BME280;10948;48.706;9.258;2023-08-06T10:47:40;96991.31;;;18.12;100.00
21574;BME280;10948;48.706;9.258;2023-08-06T10:50:06;96988.94;;;18.01;100.00
21574;BME280;10948;48.706;9.258;2023-08-06T10:52:32;96997.56;;;18.11;100.00
21574;BME280;10948;48.706;9.258;2023-08-06T10:54:58;97002.91;;;18.60;100.00
21574;BME280;10948;48.706;9.258;2023-08-06T10:57:23;96992.09;;;18.95;100.00
21574;BME280;10948;48.706;9.258;2023-08-06T10:59:49;96992.91;;;18.80;100.00
21574;BME280;10948;48.706;9.258;2023-08-06T11:02:16;96998.56;;;18.51;100.00
21574;BME280;10948;48.706;9.258;2023-08-06T11:04:41;96999.28;;;18.69;100.00
21574;BME280;10948;48.706;9.258;2023-08-06T11:07:07;96992.06;;;18.79;100.00
21574;BME280;10948;48.706;9.258;2023-08-06T11:09:32;97004.47;;;18.45;100.00
21574;BME280;10948;48.706;9.258;2023-08-06T11:11:57;97011.34;;;18.30;100.00
21574;BME280;10948;48.706;9.258;2023-08-06T11:14:22;97011.13;;;17.98;100.00
21574;BME280;10948;48.706;9.258;2023-08-06T11:16:48;97009.63;;;17.96;100.00
21574;BME280;10948;48.706;9.258;2023-08-06T11:19:13;97013.78;;;17.73;100.00
21574;BME280;10948;48.706;9.258;2023-08-06T11:21:40;97012.28;;;17.70;100.00
21574;BME280;10948;48.706;9.258;2023-08-06T11:24:05;97015.16;;;17.24;100.00
21574;BME280;10948;48.706;9.258;2023-08-06T11:26:31;97022.53;;;17.03;100.00
21574;BME280;10948;48.706;9.258;2023-08-06T11:28:56;97028.09;;;17.35;100.00
21574;BME280;10948;48.706;9.258;2023-08-06T11:31:21;97028.38;;;17.32;100.00
21574;BME280;10948;48.706;9.258;2023-08-06T11:33:48;97047.97;;;17.47;100.00
21574;BME280;10948;48.706;9.258;2023-08-06T11:36:13;97048.25;;;17.44;100.00
21574;BME280;10948;48.706;9.258;2023-08-06T11:38:38;97045.72;;;18.03;100.00
21574;BME280;10948;48.706;9.258;2023-08-06T11:41:03;97050.56;;;17.90;100.00
21574;BME280;10948;48.706;9.258;2023-08-06T11:43:31;97051.31;;;18.00;100.00
21574;BME280;10948;48.706;9.258;2023-08-06T11:45:56;97039.03;;;18.34;100.00
21574;BME280;10948;48.706;9.258;2023-08-06T11:48:21;97050.66;;;18.06;100.00
21574;BME280;10948;48.706;9.258;2023-08-06T11:50:47;97045.69;;;17.95;100.00
21574;BME280;10948;48.706;9.258;2023-08-06T11:53:12;97050.44;;;17.92;100.00
21574;BME280;10948;48.706;9.258;2023-08-06T11:55:38;97049.16;;;17.78;100.00
21574;BME280;10948;48.706;9.258;2023-08-06T11:58:04;97046.25;;;17.81;100.00
21574;BME280;10948;48.706;9.258;2023-08-06T12:00:30;97054.47;;;17.61;100.00
21574;BME280;10948;48.706;9.258;2023-08-06T12:02:55;97064.47;;;17.57;100.00
21574;BME280;10948;48.706;9.258;2023-08-06T12:05:29;97070.34;;;17.51;100.00
21574;BME280;10948;48.706;9.258;2023-08-06T12:07:56;97069.75;;;17.40;100.00
21574;BME280;10948;48.706;9.258;2023-08-06T12:10:22;97072.31;;;17.49;100.00
21574;BME280;10948;48.706;9.258;2023-08-06T12:12:48;97081.56;;;17.96;100.00
21574;BME280;10948;48.706;9.258;2023-08-06T12:15:15;97084.75;;;17.82;98.34
21574;BME280;10948;48.706;9.258;2023-08-06T12:17:40;97086.41;;;17.83;97.58
21574;BME280;10948;48.706;9.258;2023-08-06T12:20:06;97081.75;;;17.77;97.82
21574;BME280;10948;48.706;9.258;2023-08-06T12:22:32;97089.25;;;17.72;96.54
21574;BME280;10948;48.706;9.258;2023-08-06T12:25:00;97088.38;;;17.81;96.96
21574;BME280;10948;48.706;9.258;2023-08-06T12:27:25;97088.22;;;17.65;96.01
21574;BME280;10948;48.706;9.258;2023-08-06T12:29:51;97093.31;;;17.84;96.01
21574;BME280;10948;48.706;9.258;2023-08-06T12:32:16;97097.41;;;17.61;96.08
21574;BME280;10948;48.706;9.258;2023-08-06T12:34:42;97101.69;;;18.05;95.25
21574;BME280;10948;48.706;9.258;2023-08-06T12:37:08;97105.56;;;17.93;92.25
21574;BME280;10948;48.706;9.258;2023-08-06T12:39:33;97104.09;;;18.16;90.76
21574;BME280;10948;48.706;9.258;2023-08-06T12:41:59;97104.97;;;18.25;89.94
21574;BME280;10948;48.706;9.258;2023-08-06T12:44:25;97104.22;;;18.58;87.23
21574;BME280;10948;48.706;9.258;2023-08-06T12:46:51;97100.28;;;18.70;85.85